createdAt,value
2017-10-18T15:06:37.014Z,31.93
2017-10-18T16:01:45.107Z,31.80
2017-10-18T16:02:51.434Z,27.83
2017-10-18T16:04:03.472Z,29.77
2017-10-18T16:05:11.569Z,31.05
2017-10-18T16:06:19.767Z,28.50
2017-10-18T16:07:29.238Z,30.55
2017-10-18T16:08:39.063Z,31.12
2017-10-18T16:21:57.857Z,31.08
2017-10-18T16:23:19.199Z,30.77
2017-10-18T16:24:30.139Z,31.30
2017-10-18T16:25:45.992Z,33.83
2017-10-18T16:26:56.631Z,32.10
2017-10-18T16:28:04.878Z,32.20
2017-10-18T16:29:11.335Z,32.70
2017-10-18T16:30:20.564Z,34.28
2017-10-18T16:31:28.752Z,33.08
2017-10-18T16:32:35.007Z,31.20
2017-10-18T16:33:41.424Z,30.90
2017-10-18T16:34:50.091Z,28.08
2017-10-18T16:35:59.620Z,30.95
2017-10-18T16:37:07.646Z,29.42
2017-10-18T16:38:15.534Z,33.13
2017-10-18T16:39:22.446Z,30.25
2017-10-18T16:41:49.751Z,28.73
2017-10-18T16:42:56.956Z,31.48
2017-10-18T16:44:04.737Z,30.05
2017-10-18T16:45:22.144Z,32.90
2017-10-18T16:46:44.211Z,33.35
2017-10-18T16:47:56.915Z,34.15
2017-10-18T16:49:13.587Z,30.42
2017-10-18T16:50:28.699Z,26.73
2017-10-18T16:51:40.314Z,32.85
2017-10-18T16:53:02.152Z,33.78
2017-10-18T16:54:54.850Z,32.67
2017-10-18T16:56:03.394Z,31.60
2017-10-18T16:57:18.440Z,33.15
2017-10-18T16:58:26.655Z,35.53
2017-10-18T16:59:53.487Z,33.08
2017-10-18T17:00:59.702Z,30.80
2017-10-18T17:02:07.221Z,33.35
2017-10-18T17:03:13.648Z,35.13
2017-10-18T17:04:19.949Z,32.17
2017-10-18T17:05:27.155Z,34.22
2017-10-18T17:06:33.385Z,37.60
2017-10-18T17:07:42.241Z,35.80
2017-10-18T17:08:52.408Z,36.30
2017-10-18T17:10:03.424Z,31.52
2017-10-18T17:11:10.589Z,33.50
2017-10-18T17:12:16.574Z,34.45
2017-10-18T17:13:22.765Z,34.42
2017-10-18T17:14:28.950Z,37.28
2017-10-18T17:15:35.175Z,36.05
2017-10-18T17:16:41.453Z,36.65
2017-10-18T17:17:47.632Z,37.40
2017-10-18T17:18:53.763Z,33.50
2017-10-18T17:19:59.883Z,32.13
2017-10-18T17:21:06.045Z,30.35
2017-10-18T17:22:12.522Z,34.50
2017-10-18T17:23:19.210Z,31.58
2017-10-18T17:24:25.962Z,32.20
2017-10-18T17:25:32.762Z,32.92
2017-10-18T17:26:39.498Z,34.45
2017-10-18T17:27:46.279Z,32.25
2017-10-18T17:28:53.045Z,34.42
2017-10-18T17:29:59.161Z,32.70
2017-10-18T17:31:04.928Z,32.50
2017-10-18T17:32:11.054Z,33.08
2017-10-18T17:33:19.284Z,33.83
2017-10-18T17:34:26.519Z,30.67
2017-10-18T17:35:32.649Z,33.08
2017-10-18T17:36:38.814Z,29.02
2017-10-18T17:37:45.241Z,32.80
2017-10-18T17:38:51.568Z,34.17
2017-10-18T17:39:57.724Z,32.33
2017-10-18T17:41:03.853Z,34.03
2017-10-18T17:42:10.854Z,31.52
2017-10-18T17:43:16.951Z,32.65
2017-10-18T17:44:23.107Z,32.10
2017-10-18T17:45:29.232Z,33.60
2017-10-18T17:46:37.672Z,32.72
2017-10-18T17:47:44.670Z,35.85
2017-10-18T17:48:50.628Z,34.55
2017-10-18T17:49:56.978Z,33.20
2017-10-18T17:51:03.753Z,35.20
2017-10-18T17:52:10.226Z,35.80
2017-10-18T17:53:16.565Z,31.20
2017-10-18T17:54:22.523Z,35.95
2017-10-18T17:55:28.674Z,32.33
2017-10-18T17:56:34.826Z,30.62
2017-10-18T17:57:41.206Z,30.15
2017-10-18T17:58:47.335Z,30.92
2017-10-18T17:59:54.607Z,29.20
2017-10-18T18:01:00.739Z,29.08
2017-10-18T18:02:06.791Z,30.83
2017-10-18T18:03:13.012Z,32.35
2017-10-18T18:04:19.149Z,33.05
2017-10-18T18:05:25.087Z,33.80
2017-10-18T18:06:31.248Z,36.70
2017-10-18T18:07:37.412Z,33.63
2017-10-18T18:08:43.347Z,31.15
2017-10-18T18:09:49.647Z,32.25
2017-10-18T18:10:56.020Z,33.92
2017-10-18T18:12:03.263Z,32.00
2017-10-18T18:13:09.356Z,32.58
2017-10-18T18:14:15.336Z,32.05
2017-10-18T18:15:22.147Z,33.05
2017-10-18T18:16:29.534Z,29.95
2017-10-18T18:17:35.923Z,31.52
2017-10-18T18:18:42.818Z,32.20
2017-10-18T18:19:51.114Z,33.17
2017-10-18T18:20:58.229Z,32.47
2017-10-18T18:22:05.202Z,30.95
2017-10-18T18:23:13.528Z,30.60
2017-10-18T18:24:20.986Z,32.38
2017-10-18T18:25:29.023Z,33.97
2017-10-18T18:26:36.963Z,32.67
2017-10-18T18:27:43.738Z,37.08
2017-10-18T18:28:49.959Z,34.75
2017-10-18T18:29:56.699Z,34.85
2017-10-18T18:31:03.881Z,34.05
2017-10-18T18:32:12.669Z,33.05
2017-10-18T18:33:20.108Z,35.05
2017-10-18T18:34:26.979Z,33.70
2017-10-18T18:35:33.553Z,33.55
2017-10-18T18:36:40.219Z,33.15
2017-10-18T18:37:49.615Z,32.13
2017-10-18T18:38:56.774Z,35.72
2017-10-18T18:40:03.436Z,33.50
2017-10-18T18:41:09.850Z,33.95
2017-10-18T18:42:16.179Z,34.10
2017-10-18T18:43:22.863Z,34.17
2017-10-18T18:44:29.803Z,31.98
2017-10-18T18:45:37.065Z,34.22
2017-10-18T18:46:44.367Z,31.95
2017-10-18T18:47:51.289Z,31.25
2017-10-18T18:48:58.760Z,34.67
2017-10-18T18:50:05.638Z,33.60
2017-10-18T18:51:12.864Z,36.78
2017-10-18T18:52:20.264Z,34.63
2017-10-18T18:53:27.108Z,34.30
2017-10-18T18:54:34.060Z,33.40
2017-10-18T18:55:40.592Z,34.75
2017-10-18T18:56:47.276Z,33.85
2017-10-18T18:57:54.425Z,35.42
2017-10-18T18:59:01.663Z,35.58
2017-10-18T19:00:08.305Z,36.90
2017-10-18T19:01:15.411Z,34.88
2017-10-18T19:02:21.882Z,33.75
2017-10-18T19:03:29.718Z,33.17
2017-10-18T19:04:36.807Z,31.42
2017-10-18T19:05:43.297Z,35.25
2017-10-18T19:06:49.405Z,33.30
2017-10-18T19:07:58.028Z,33.78
2017-10-18T19:09:05.541Z,34.85
2017-10-18T19:10:14.500Z,34.50
2017-10-18T19:11:22.684Z,33.65
2017-10-18T19:12:30.803Z,33.45
2017-10-18T19:13:39.529Z,34.20
2017-10-18T19:14:48.925Z,30.98
2017-10-18T19:15:56.855Z,33.10
2017-10-18T19:17:04.335Z,32.22
2017-10-18T19:18:11.793Z,35.97
2017-10-18T19:19:19.513Z,33.28
2017-10-18T19:20:26.914Z,36.88
2017-10-18T19:21:37.236Z,35.75
2017-10-18T19:24:15.213Z,34.13
2017-10-18T19:25:22.444Z,33.95
2017-10-18T19:26:31.400Z,34.20
2017-10-18T19:27:38.820Z,35.47
2017-10-18T19:28:46.043Z,35.53
2017-10-18T19:29:53.104Z,32.85
2017-10-18T19:31:01.618Z,33.20
2017-10-18T19:32:08.832Z,33.00
2017-10-18T19:33:16.586Z,32.55
2017-10-18T19:34:25.983Z,33.15
2017-10-18T19:35:34.719Z,32.63
2017-10-18T19:36:42.279Z,32.20
2017-10-18T19:37:50.556Z,32.65
2017-10-18T19:38:57.197Z,36.08
2017-10-18T19:40:04.507Z,41.65
2017-10-18T19:41:10.833Z,33.30
2017-10-18T19:42:16.942Z,34.40
2017-10-18T19:43:23.064Z,33.30
2017-10-18T19:44:29.192Z,35.75
2017-10-18T19:45:35.290Z,34.85
2017-10-18T19:46:41.430Z,36.50
2017-10-18T19:47:47.551Z,37.55
2017-10-18T19:48:53.676Z,34.50
2017-10-18T19:49:59.811Z,34.20
2017-10-18T19:51:05.915Z,33.78
2017-10-18T19:52:12.026Z,33.90
2017-10-18T19:53:18.130Z,36.67
2017-10-18T19:54:24.232Z,33.60
2017-10-18T19:55:30.346Z,33.70
2017-10-18T19:56:36.696Z,35.17
2017-10-18T19:57:42.789Z,37.13
2017-10-18T19:58:48.843Z,34.75
2017-10-18T19:59:54.940Z,34.50
2017-10-18T20:01:01.072Z,33.20
2017-10-18T20:02:06.951Z,32.38
2017-10-18T20:03:13.044Z,32.55
2017-10-18T20:04:19.243Z,32.03
2017-10-18T20:05:25.368Z,33.85
2017-10-18T20:06:31.448Z,34.95
2017-10-18T20:07:36.998Z,33.97
2017-10-18T20:08:43.111Z,34.00
2017-10-18T20:09:49.315Z,35.00
2017-10-18T20:10:55.426Z,36.75
2017-10-18T20:12:01.867Z,31.12
2017-10-18T20:13:07.982Z,35.05
2017-10-18T20:14:14.086Z,34.63
2017-10-18T20:15:20.196Z,37.30
2017-10-18T20:16:25.993Z,35.30
2017-10-18T20:17:32.100Z,35.50
2017-10-18T20:18:38.101Z,34.65
2017-10-18T20:19:44.207Z,35.00
2017-10-18T20:20:50.135Z,35.67
2017-10-18T20:21:56.426Z,34.03
2017-10-18T20:23:02.450Z,39.40
2017-10-18T20:24:08.812Z,39.85
2017-10-18T20:25:14.925Z,37.67
2017-10-18T20:26:20.840Z,34.97
2017-10-18T20:27:26.932Z,36.05
2017-10-18T20:28:33.010Z,36.60
2017-10-18T20:29:39.121Z,36.08
2017-10-18T20:30:45.119Z,33.08
2017-10-18T20:31:51.243Z,38.22
2017-10-18T20:32:57.341Z,35.88
2017-10-18T20:34:03.451Z,38.00
2017-10-18T20:35:09.547Z,34.95
2017-10-18T20:36:15.662Z,35.70
2017-10-18T20:37:21.782Z,36.65
2017-10-18T20:38:28.001Z,33.60
2017-10-18T20:39:34.404Z,37.05
2017-10-18T20:40:40.752Z,36.05
2017-10-18T20:41:46.864Z,37.80
2017-10-18T20:42:53.011Z,37.38
2017-10-18T20:43:59.110Z,36.90
2017-10-18T20:45:05.212Z,32.63
2017-10-18T20:46:11.383Z,33.63
2017-10-18T20:47:17.500Z,37.75
2017-10-18T20:48:23.410Z,36.58
2017-10-18T20:49:29.497Z,36.00
2017-10-18T20:50:35.253Z,36.47
2017-10-18T20:51:41.423Z,39.58
2017-10-18T20:52:47.509Z,35.53
2017-10-18T20:53:53.632Z,32.47
2017-10-18T20:54:59.744Z,37.15
2017-10-18T20:56:05.862Z,39.03
2017-10-18T20:57:12.028Z,40.20
2017-10-18T20:58:17.841Z,38.40
2017-10-18T20:59:23.936Z,38.42
2017-10-18T21:00:29.911Z,33.28
2017-10-18T21:01:35.908Z,35.40
2017-10-18T21:02:42.306Z,38.92
2017-10-18T21:03:48.412Z,38.47
2017-10-18T21:04:54.533Z,39.13
2017-10-18T21:06:00.626Z,38.17
2017-10-18T21:07:06.558Z,35.25
2017-10-18T21:08:12.462Z,36.05
2017-10-18T21:09:18.571Z,36.88
2017-10-18T21:10:24.696Z,38.13
2017-10-18T21:11:30.989Z,37.63
2017-10-18T21:12:36.897Z,37.85
2017-10-18T21:13:43.017Z,39.33
2017-10-18T21:14:49.132Z,38.38
2017-10-18T21:15:55.025Z,38.15
2017-10-18T21:17:01.196Z,38.70
2017-10-18T21:18:07.287Z,36.28
2017-10-18T21:19:13.395Z,36.80
2017-10-18T21:20:19.509Z,36.25
2017-10-18T21:21:25.617Z,35.95
2017-10-18T21:22:35.144Z,37.83
2017-10-18T21:23:41.292Z,36.90
2017-10-18T21:24:47.375Z,36.55
2017-10-18T21:25:53.469Z,38.47
2017-10-18T21:26:59.567Z,34.90
2017-10-18T21:28:05.829Z,36.38
2017-10-18T21:29:11.949Z,39.80
2017-10-18T21:30:18.044Z,39.47
2017-10-18T21:31:24.174Z,40.20
2017-10-18T21:32:30.280Z,36.03
2017-10-18T21:33:36.365Z,39.72
2017-10-18T21:34:42.287Z,35.60
2017-10-18T21:35:48.416Z,34.05
2017-10-18T21:36:54.494Z,35.47
2017-10-18T21:38:00.048Z,36.97
2017-10-18T21:39:05.592Z,39.33
2017-10-18T21:40:11.480Z,35.65
2017-10-18T21:41:17.374Z,38.65
2017-10-18T21:42:23.503Z,39.63
2017-10-18T21:43:29.768Z,37.25
2017-10-18T21:44:36.139Z,34.83
2017-10-18T21:45:42.232Z,36.70
2017-10-18T21:46:48.699Z,41.13
2017-10-18T21:47:58.435Z,39.13
2017-10-18T21:49:04.875Z,32.70
2017-10-18T21:50:11.296Z,36.45
2017-10-18T21:51:17.394Z,38.50
2017-10-18T21:52:23.498Z,36.35
2017-10-18T21:53:29.403Z,37.90
2017-10-18T21:54:35.337Z,41.08
2017-10-18T21:55:41.443Z,38.00
2017-10-18T21:56:47.560Z,38.10
2017-10-18T21:57:53.853Z,37.67
2017-10-18T21:59:00.025Z,37.85
2017-10-18T22:00:06.782Z,35.53
2017-10-18T22:01:12.342Z,34.65
2017-10-18T22:02:18.442Z,38.47
2017-10-18T22:03:24.531Z,35.25
2017-10-18T22:04:30.613Z,37.90
2017-10-18T22:05:36.748Z,34.90
2017-10-18T22:06:42.845Z,36.10
2017-10-18T22:07:49.519Z,36.78
2017-10-18T22:08:55.639Z,40.08
2017-10-18T22:10:02.099Z,38.97
2017-10-18T22:11:08.224Z,34.47
2017-10-18T22:12:14.490Z,35.20
2017-10-18T22:13:20.661Z,33.65
2017-10-18T22:14:26.802Z,37.25
2017-10-18T22:15:32.922Z,38.83
2017-10-18T22:16:39.085Z,36.55
2017-10-18T22:17:45.327Z,38.45
2017-10-18T22:18:51.278Z,43.72
2017-10-18T22:19:57.918Z,46.20
2017-10-18T22:21:04.021Z,46.58
2017-10-18T22:22:10.132Z,46.47
2017-10-18T22:23:16.253Z,46.55
2017-10-18T22:24:22.416Z,46.05
2017-10-18T22:25:28.543Z,41.50
2017-10-18T22:26:34.693Z,52.95
2017-10-18T22:27:40.824Z,58.80
2017-10-18T22:28:46.854Z,44.38
2017-10-18T22:29:52.992Z,43.53
2017-10-18T22:30:59.296Z,43.92
2017-10-18T22:32:05.426Z,42.80
2017-10-18T22:33:11.526Z,41.33
2017-10-18T22:34:17.646Z,38.92
2017-10-18T22:35:23.447Z,44.03
2017-10-18T22:36:29.476Z,41.65
2017-10-18T22:37:35.332Z,44.60
2017-10-18T22:38:41.129Z,45.60
2017-10-18T22:39:47.265Z,45.75
2017-10-18T22:40:53.388Z,44.65
2017-10-18T22:41:59.498Z,45.83
2017-10-18T22:43:05.653Z,43.33
2017-10-18T22:44:11.771Z,49.60
2017-10-18T22:45:17.873Z,45.05
2017-10-18T22:46:23.970Z,45.92
2017-10-18T22:47:30.100Z,54.83
2017-10-18T22:48:36.096Z,47.42
2017-10-18T22:49:44.319Z,49.47
2017-10-18T22:50:50.444Z,55.50
2017-10-18T22:51:56.587Z,59.80
2017-10-18T22:53:02.627Z,63.80
2017-10-18T22:54:12.206Z,60.50
2017-10-18T22:55:18.321Z,64.30
2017-10-18T22:56:27.420Z,57.75
2017-10-18T22:57:33.520Z,87.82
2017-10-18T22:58:39.642Z,59.53
2017-10-18T22:59:45.923Z,63.65
2017-10-18T23:00:52.104Z,56.30
2017-10-18T23:01:58.209Z,63.40
2017-10-18T23:03:04.368Z,77.45
2017-10-18T23:04:10.275Z,66.30
2017-10-18T23:05:16.549Z,57.75
2017-10-18T23:06:22.682Z,52.20
2017-10-18T23:07:29.495Z,55.60
2017-10-18T23:08:35.669Z,52.67
2017-10-18T23:09:41.845Z,49.85
2017-10-18T23:10:48.000Z,49.90
2017-10-18T23:11:54.190Z,53.85
2017-10-18T23:13:00.082Z,51.75
2017-10-18T23:14:07.324Z,48.83
2017-10-18T23:15:13.431Z,49.08
2017-10-18T23:16:19.534Z,54.58
2017-10-18T23:17:25.647Z,53.50
2017-10-18T23:18:31.814Z,49.83
2017-10-18T23:19:37.951Z,52.62
2017-10-18T23:20:44.097Z,49.88
2017-10-18T23:21:50.181Z,48.03
2017-10-18T23:22:59.924Z,50.60
2017-10-18T23:24:06.081Z,53.22
2017-10-18T23:25:13.356Z,51.50
2017-10-18T23:26:19.287Z,48.63
2017-10-18T23:27:26.601Z,51.37
2017-10-18T23:28:32.863Z,48.53
2017-10-18T23:29:39.966Z,45.10
2017-10-18T23:30:46.056Z,47.65
2017-10-18T23:31:52.181Z,48.60
2017-10-18T23:32:58.169Z,52.65
2017-10-18T23:34:04.441Z,46.55
2017-10-18T23:35:10.565Z,44.45
2017-10-18T23:36:16.688Z,44.17
2017-10-18T23:37:22.801Z,45.90
2017-10-18T23:38:28.994Z,46.50
2017-10-18T23:39:34.902Z,50.63
2017-10-18T23:40:41.000Z,50.22
2017-10-18T23:41:47.126Z,46.67
2017-10-18T23:42:53.250Z,51.90
2017-10-18T23:43:59.516Z,49.22
2017-10-18T23:45:05.421Z,49.65
2017-10-18T23:46:11.509Z,46.50
2017-10-18T23:47:17.613Z,51.47
2017-10-18T23:48:23.741Z,53.80
2017-10-18T23:49:29.870Z,55.83
2017-10-18T23:50:35.993Z,49.00
2017-10-18T23:51:42.104Z,50.28
2017-10-18T23:52:53.717Z,44.97
2017-10-18T23:53:59.979Z,44.40
2017-10-18T23:55:06.096Z,43.70
2017-10-18T23:56:14.783Z,41.75
2017-10-18T23:57:21.444Z,40.72
2017-10-18T23:58:28.337Z,41.85
2017-10-18T23:59:35.443Z,45.00
